sensor_id;sensor_type;location;lat;lon;timestamp;P1;durP1;ratioP1;P2;durP2;ratioP2
2191;SDS011;1102;49.718;11.902;2023-04-03T00:00:49;2.40;;;2.20;;
2191;SDS011;1102;49.718;11.902;2023-04-03T00:03:16;3.60;;;3.00;;
2191;SDS011;1102;49.718;11.902;2023-04-03T00:05:44;2.60;;;2.40;;
2191;SDS011;1102;49.718;11.902;2023-04-03T00:08:11;2.90;;;2.70;;
2191;SDS011;1102;49.718;11.902;2023-04-03T00:10:38;2.23;;;2.03;;
2191;SDS011;1102;49.718;11.902;2023-04-03T00:13:05;2.93;;;2.73;;
2191;SDS011;1102;49.718;11.902;2023-04-03T00:15:33;5.50;;;2.67;;
2191;SDS011;1102;49.718;11.902;2023-04-03T00:18:01;2.60;;;2.40;;
2191;SDS011;1102;49.718;11.902;2023-04-03T00:20:28;4.97;;;3.40;;
2191;SDS011;1102;49.718;11.902;2023-04-03T00:22:55;2.60;;;2.40;;
2191;SDS011;1102;49.718;11.902;2023-04-03T00:25:22;2.80;;;2.60;;
2191;SDS011;1102;49.718;11.902;2023-04-03T00:27:49;3.97;;;2.83;;
2191;SDS011;1102;49.718;11.902;2023-04-03T00:30:16;2.47;;;2.27;;
2191;SDS011;1102;49.718;11.902;2023-04-03T00:32:47;3.73;;;3.00;;
2191;SDS011;1102;49.718;11.902;2023-04-03T00:35:14;2.93;;;2.63;;
2191;SDS011;1102;49.718;11.902;2023-04-03T00:37:44;2.87;;;2.57;;
2191;SDS011;1102;49.718;11.902;2023-04-03T00:40:12;2.27;;;2.07;;
2191;SDS011;1102;49.718;11.902;2023-04-03T00:42:41;1.97;;;1.83;;
2191;SDS011;1102;49.718;11.902;2023-04-03T00:47:39;4.00;;;2.60;;
2191;SDS011;1102;49.718;11.902;2023-04-03T00:50:08;3.13;;;2.47;;
2191;SDS011;1102;49.718;11.902;2023-04-03T00:52:35;2.80;;;2.60;;
2191;SDS011;1102;49.718;11.902;2023-04-03T00:55:04;2.73;;;2.47;;
2191;SDS011;1102;49.718;11.902;2023-04-03T00:57:33;2.70;;;2.50;;
2191;SDS011;1102;49.718;11.902;2023-04-03T01:00:04;3.27;;;2.33;;
2191;SDS011;1102;49.718;11.902;2023-04-03T01:02:35;2.70;;;2.50;;
2191;SDS011;1102;49.718;11.902;2023-04-03T01:05:03;2.43;;;2.23;;
2191;SDS011;1102;49.718;11.902;2023-04-03T01:07:31;2.70;;;2.00;;
2191;SDS011;1102;49.718;11.902;2023-04-03T01:10:00;3.80;;;2.60;;
2191;SDS011;1102;49.718;11.902;2023-04-03T01:14:59;2.20;;;2.00;;
2191;SDS011;1102;49.718;11.902;2023-04-03T01:20:12;3.33;;;2.67;;
2191;SDS011;1102;49.718;11.902;2023-04-03T01:25:48;3.47;;;2.40;;
2191;SDS011;1102;49.718;11.902;2023-04-03T01:28:19;3.30;;;3.00;;
2191;SDS011;1102;49.718;11.902;2023-04-03T01:33:22;2.77;;;2.57;;
2191;SDS011;1102;49.718;11.902;2023-04-03T01:35:48;3.90;;;3.10;;
2191;SDS011;1102;49.718;11.902;2023-04-03T01:38:15;2.73;;;2.53;;
2191;SDS011;1102;49.718;11.902;2023-04-03T01:40:42;3.00;;;2.57;;
2191;SDS011;1102;49.718;11.902;2023-04-03T01:43:09;3.17;;;2.40;;
2191;SDS011;1102;49.718;11.902;2023-04-03T01:45:36;3.80;;;2.90;;
2191;SDS011;1102;49.718;11.902;2023-04-03T01:48:03;4.40;;;3.47;;
2191;SDS011;1102;49.718;11.902;2023-04-03T01:50:30;2.97;;;2.77;;
2191;SDS011;1102;49.718;11.902;2023-04-03T01:52:57;3.00;;;2.80;;
2191;SDS011;1102;49.718;11.902;2023-04-03T01:55:24;3.23;;;3.03;;
2191;SDS011;1102;49.718;11.902;2023-04-03T01:57:51;7.40;;;4.53;;
2191;SDS011;1102;49.718;11.902;2023-04-03T02:00:17;2.70;;;2.50;;
2191;SDS011;1102;49.718;11.902;2023-04-03T02:02:44;3.30;;;3.00;;
2191;SDS011;1102;49.718;11.902;2023-04-03T02:05:12;3.17;;;2.80;;
2191;SDS011;1102;49.718;11.902;2023-04-03T02:07:39;5.20;;;2.90;;
2191;SDS011;1102;49.718;11.902;2023-04-03T02:10:07;2.97;;;2.77;;
2191;SDS011;1102;49.718;11.902;2023-04-03T02:12:34;6.80;;;3.37;;
2191;SDS011;1102;49.718;11.902;2023-04-03T02:15:00;3.23;;;2.93;;
2191;SDS011;1102;49.718;11.902;2023-04-03T02:17:27;3.30;;;3.00;;
2191;SDS011;1102;49.718;11.902;2023-04-03T02:19:54;3.93;;;3.00;;
2191;SDS011;1102;49.718;11.902;2023-04-03T02:22:20;3.20;;;3.00;;
2191;SDS011;1102;49.718;11.902;2023-04-03T02:24:47;3.90;;;3.50;;
2191;SDS011;1102;49.718;11.902;2023-04-03T02:27:14;3.50;;;3.20;;
2191;SDS011;1102;49.718;11.902;2023-04-03T02:29:41;4.63;;;4.00;;
2191;SDS011;1102;49.718;11.902;2023-04-03T02:32:07;5.80;;;3.03;;
2191;SDS011;1102;49.718;11.902;2023-04-03T02:34:34;5.47;;;4.40;;
2191;SDS011;1102;49.718;11.902;2023-04-03T02:37:01;5.07;;;3.50;;
2191;SDS011;1102;49.718;11.902;2023-04-03T02:39:29;2.50;;;2.40;;
2191;SDS011;1102;49.718;11.902;2023-04-03T02:41:57;4.00;;;3.30;;
2191;SDS011;1102;49.718;11.902;2023-04-03T02:44:24;6.50;;;2.80;;
2191;SDS011;1102;49.718;11.902;2023-04-03T02:46:51;3.27;;;3.07;;
2191;SDS011;1102;49.718;11.902;2023-04-03T02:49:18;3.30;;;2.63;;
2191;SDS011;1102;49.718;11.902;2023-04-03T02:51:45;5.33;;;3.20;;
2191;SDS011;1102;49.718;11.902;2023-04-03T02:54:12;3.40;;;3.20;;
2191;SDS011;1102;49.718;11.902;2023-04-03T02:56:43;3.53;;;3.23;;
2191;SDS011;1102;49.718;11.902;2023-04-03T02:59:10;3.67;;;3.40;;
2191;SDS011;1102;49.718;11.902;2023-04-03T03:01:38;4.03;;;3.27;;
2191;SDS011;1102;49.718;11.902;2023-04-03T03:04:05;3.57;;;3.27;;
2191;SDS011;1102;49.718;11.902;2023-04-03T03:06:32;3.80;;;3.20;;
2191;SDS011;1102;49.718;11.902;2023-04-03T03:08:58;4.00;;;3.60;;
2191;SDS011;1102;49.718;11.902;2023-04-03T03:11:25;3.87;;;3.30;;
2191;SDS011;1102;49.718;11.902;2023-04-03T03:13:52;4.03;;;3.60;;
2191;SDS011;1102;49.718;11.902;2023-04-03T03:16:19;3.73;;;3.43;;
2191;SDS011;1102;49.718;11.902;2023-04-03T03:18:46;4.03;;;3.70;;
2191;SDS011;1102;49.718;11.902;2023-04-03T03:21:12;9.30;;;3.60;;
2191;SDS011;1102;49.718;11.902;2023-04-03T03:23:39;3.87;;;3.53;;
2191;SDS011;1102;49.718;11.902;2023-04-03T03:26:07;3.70;;;3.40;;
2191;SDS011;1102;49.718;11.902;2023-04-03T03:28:36;5.23;;;3.83;;
2191;SDS011;1102;49.718;11.902;2023-04-03T03:31:04;3.37;;;3.07;;
2191;SDS011;1102;49.718;11.902;2023-04-03T03:33:38;4.17;;;3.77;;
2191;SDS011;1102;49.718;11.902;2023-04-03T03:36:05;5.13;;;3.90;;
2191;SDS011;1102;49.718;11.902;2023-04-03T03:38:32;4.60;;;3.50;;
2191;SDS011;1102;49.718;11.902;2023-04-03T03:41:00;3.77;;;3.47;;
2191;SDS011;1102;49.718;11.902;2023-04-03T03:43:28;4.50;;;4.10;;
2191;SDS011;1102;49.718;11.902;2023-04-03T03:45:56;4.03;;;3.67;;
2191;SDS011;1102;49.718;11.902;2023-04-03T03:48:23;7.27;;;4.40;;
2191;SDS011;1102;49.718;11.902;2023-04-03T03:50:50;7.17;;;3.97;;
2191;SDS011;1102;49.718;11.902;2023-04-03T03:53:21;5.93;;;4.63;;
2191;SDS011;1102;49.718;11.902;2023-04-03T03:55:51;5.33;;;3.87;;
2191;SDS011;1102;49.718;11.902;2023-04-03T03:58:20;4.03;;;3.57;;
2191;SDS011;1102;49.718;11.902;2023-04-03T04:00:47;3.67;;;3.33;;
2191;SDS011;1102;49.718;11.902;2023-04-03T04:03:14;5.00;;;4.43;;
2191;SDS011;1102;49.718;11.902;2023-04-03T04:05:43;4.00;;;3.30;;
2191;SDS011;1102;49.718;11.902;2023-04-03T04:08:10;6.77;;;4.37;;
2191;SDS011;1102;49.718;11.902;2023-04-03T04:10:38;8.90;;;5.13;;
2191;SDS011;1102;49.718;11.902;2023-04-03T04:13:06;4.70;;;4.30;;
2191;SDS011;1102;49.718;11.902;2023-04-03T04:15:33;6.50;;;4.70;;
2191;SDS011;1102;49.718;11.902;2023-04-03T04:18:01;6.60;;;6.00;;
2191;SDS011;1102;49.718;11.902;2023-04-03T04:20:28;4.50;;;4.10;;
2191;SDS011;1102;49.718;11.902;2023-04-03T04:22:54;5.87;;;4.77;;
2191;SDS011;1102;49.718;11.902;2023-04-03T04:25:22;8.20;;;4.30;;
2191;SDS011;1102;49.718;11.902;2023-04-03T04:27:48;4.10;;;3.70;;
2191;SDS011;1102;49.718;11.902;2023-04-03T04:30:16;3.77;;;3.43;;
2191;SDS011;1102;49.718;11.902;2023-04-03T04:32:45;5.70;;;4.20;;
2191;SDS011;1102;49.718;11.902;2023-04-03T04:35:12;6.43;;;3.70;;
2191;SDS011;1102;49.718;11.902;2023-04-03T04:37:44;3.40;;;3.10;;
2191;SDS011;1102;49.718;11.902;2023-04-03T04:40:11;3.93;;;3.53;;
2191;SDS011;1102;49.718;11.902;2023-04-03T04:42:38;4.37;;;4.03;;
2191;SDS011;1102;49.718;11.902;2023-04-03T04:45:05;4.10;;;3.60;;
2191;SDS011;1102;49.718;11.902;2023-04-03T04:47:35;8.93;;;3.50;;
2191;SDS011;1102;49.718;11.902;2023-04-03T04:50:03;8.30;;;3.77;;
2191;SDS011;1102;49.718;11.902;2023-04-03T04:52:31;6.30;;;5.10;;
2191;SDS011;1102;49.718;11.902;2023-04-03T04:54:58;9.50;;;4.50;;
2191;SDS011;1102;49.718;11.902;2023-04-03T04:57:26;4.70;;;4.40;;
2191;SDS011;1102;49.718;11.902;2023-04-03T04:59:54;5.63;;;4.27;;
2191;SDS011;1102;49.718;11.902;2023-04-03T05:02:21;5.53;;;4.00;;
2191;SDS011;1102;49.718;11.902;2023-04-03T05:04:47;5.63;;;4.10;;
2191;SDS011;1102;49.718;11.902;2023-04-03T05:07:20;7.80;;;5.60;;
2191;SDS011;1102;49.718;11.902;2023-04-03T05:09:47;11.00;;;5.30;;
2191;SDS011;1102;49.718;11.902;2023-04-03T05:12:15;6.83;;;4.90;;
2191;SDS011;1102;49.718;11.902;2023-04-03T05:14:49;9.17;;;5.60;;
2191;SDS011;1102;49.718;11.902;2023-04-03T05:17:15;5.03;;;4.13;;
2191;SDS011;1102;49.718;11.902;2023-04-03T05:19:47;5.00;;;4.50;;
2191;SDS011;1102;49.718;11.902;2023-04-03T05:22:15;4.80;;;4.30;;
2191;SDS011;1102;49.718;11.902;2023-04-03T05:24:43;4.50;;;3.93;;
2191;SDS011;1102;49.718;11.902;2023-04-03T05:27:10;6.00;;;4.33;;
2191;SDS011;1102;49.718;11.902;2023-04-03T05:29:41;7.30;;;4.30;;
2191;SDS011;1102;49.718;11.902;2023-04-03T05:32:14;8.83;;;4.40;;
2191;SDS011;1102;49.718;11.902;2023-04-03T05:34:41;5.17;;;3.70;;
2191;SDS011;1102;49.718;11.902;2023-04-03T05:37:07;4.13;;;3.70;;
2191;SDS011;1102;49.718;11.902;2023-04-03T05:39:35;6.33;;;4.70;;
2191;SDS011;1102;49.718;11.902;2023-04-03T05:42:03;4.73;;;3.60;;
2191;SDS011;1102;49.718;11.902;2023-04-03T05:44:30;5.40;;;4.63;;
2191;SDS011;1102;49.718;11.902;2023-04-03T05:46:56;5.00;;;4.50;;
2191;SDS011;1102;49.718;11.902;2023-04-03T05:49:23;7.73;;;3.80;;
2191;SDS011;1102;49.718;11.902;2023-04-03T05:51:50;6.80;;;5.43;;
2191;SDS011;1102;49.718;11.902;2023-04-03T05:54:27;5.93;;;4.47;;
2191;SDS011;1102;49.718;11.902;2023-04-03T05:57:11;5.70;;;4.93;;
2191;SDS011;1102;49.718;11.902;2023-04-03T05:59:39;6.63;;;4.23;;
2191;SDS011;1102;49.718;11.902;2023-04-03T06:02:06;5.13;;;4.73;;
2191;SDS011;1102;49.718;11.902;2023-04-03T06:04:35;4.43;;;3.80;;
2191;SDS011;1102;49.718;11.902;2023-04-03T06:07:01;7.70;;;4.67;;
2191;SDS011;1102;49.718;11.902;2023-04-03T06:09:28;6.60;;;3.90;;
2191;SDS011;1102;49.718;11.902;2023-04-03T06:11:57;5.60;;;4.20;;
2191;SDS011;1102;49.718;11.902;2023-04-03T06:14:26;11.70;;;4.70;;
2191;SDS011;1102;49.718;11.902;2023-04-03T06:16:53;4.73;;;4.00;;
2191;SDS011;1102;49.718;11.902;2023-04-03T06:19:20;6.63;;;4.10;;
2191;SDS011;1102;49.718;11.902;2023-04-03T06:21:50;4.13;;;3.47;;
2191;SDS011;1102;49.718;11.902;2023-04-03T06:24:18;3.60;;;3.30;;
2191;SDS011;1102;49.718;11.902;2023-04-03T06:26:46;6.50;;;3.80;;
2191;SDS011;1102;49.718;11.902;2023-04-03T06:29:12;5.17;;;4.17;;
2191;SDS011;1102;49.718;11.902;2023-04-03T06:31:39;5.17;;;4.40;;
2191;SDS011;1102;49.718;11.902;2023-04-03T06:34:06;4.90;;;3.37;;
2191;SDS011;1102;49.718;11.902;2023-04-03T06:36:35;3.80;;;3.50;;
2191;SDS011;1102;49.718;11.902;2023-04-03T06:39:01;3.93;;;3.73;;
2191;SDS011;1102;49.718;11.902;2023-04-03T06:41:29;3.60;;;3.30;;
2191;SDS011;1102;49.718;11.902;2023-04-03T06:43:57;3.70;;;3.40;;
2191;SDS011;1102;49.718;11.902;2023-04-03T06:46:25;6.87;;;4.70;;
2191;SDS011;1102;49.718;11.902;2023-04-03T06:48:53;6.00;;;3.50;;
2191;SDS011;1102;49.718;11.902;2023-04-03T06:51:26;4.20;;;3.33;;
2191;SDS011;1102;49.718;11.902;2023-04-03T06:53:57;5.37;;;3.47;;
2191;SDS011;1102;49.718;11.902;2023-04-03T06:56:25;4.07;;;3.67;;
2191;SDS011;1102;49.718;11.902;2023-04-03T06:58:53;3.93;;;3.53;;
2191;SDS011;1102;49.718;11.902;2023-04-03T07:01:22;3.30;;;3.00;;
2191;SDS011;1102;49.718;11.902;2023-04-03T07:03:48;4.90;;;3.47;;
2191;SDS011;1102;49.718;11.902;2023-04-03T07:06:16;3.50;;;3.30;;
2191;SDS011;1102;49.718;11.902;2023-04-03T07:08:44;4.03;;;2.73;;
2191;SDS011;1102;49.718;11.902;2023-04-03T07:11:12;6.57;;;3.67;;
2191;SDS011;1102;49.718;11.902;2023-04-03T07:13:40;9.40;;;4.20;;
2191;SDS011;1102;49.718;11.902;2023-04-03T07:16:07;5.03;;;3.80;;
2191;SDS011;1102;49.718;11.902;2023-04-03T07:18:35;3.73;;;3.20;;
2191;SDS011;1102;49.718;11.902;2023-04-03T07:21:02;3.30;;;3.00;;
2191;SDS011;1102;49.718;11.902;2023-04-03T07:23:30;3.63;;;3.33;;
2191;SDS011;1102;49.718;11.902;2023-04-03T07:25:57;5.10;;;3.70;;
2191;SDS011;1102;49.718;11.902;2023-04-03T07:28:24;3.50;;;3.20;;
2191;SDS011;1102;49.718;11.902;2023-04-03T07:30:51;4.80;;;3.23;;
2191;SDS011;1102;49.718;11.902;2023-04-03T07:33:21;4.17;;;3.00;;
2191;SDS011;1102;49.718;11.902;2023-04-03T07:35:48;2.87;;;2.67;;
2191;SDS011;1102;49.718;11.902;2023-04-03T07:38:15;4.33;;;2.53;;
2191;SDS011;1102;49.718;11.902;2023-04-03T07:40:49;3.67;;;3.23;;
2191;SDS011;1102;49.718;11.902;2023-04-03T07:43:19;3.50;;;2.90;;
2191;SDS011;1102;49.718;11.902;2023-04-03T07:45:47;4.70;;;3.87;;
2191;SDS011;1102;49.718;11.902;2023-04-03T07:48:18;5.73;;;5.20;;
2191;SDS011;1102;49.718;11.902;2023-04-03T07:50:45;3.00;;;2.70;;
2191;SDS011;1102;49.718;11.902;2023-04-03T07:53:12;8.90;;;3.03;;
2191;SDS011;1102;49.718;11.902;2023-04-03T07:55:40;4.37;;;3.30;;
2191;SDS011;1102;49.718;11.902;2023-04-03T07:58:10;3.37;;;2.70;;
2191;SDS011;1102;49.718;11.902;2023-04-03T08:00:39;3.43;;;3.13;;
2191;SDS011;1102;49.718;11.902;2023-04-03T08:03:05;2.43;;;2.30;;
2191;SDS011;1102;49.718;11.902;2023-04-03T08:05:37;2.90;;;2.17;;
2191;SDS011;1102;49.718;11.902;2023-04-03T08:08:05;2.87;;;2.63;;
2191;SDS011;1102;49.718;11.902;2023-04-03T08:10:33;2.17;;;2.07;;
2191;SDS011;1102;49.718;11.902;2023-04-03T08:13:00;2.53;;;2.33;;
2191;SDS011;1102;49.718;11.902;2023-04-03T08:15:29;5.07;;;2.07;;
2191;SDS011;1102;49.718;11.902;2023-04-03T08:17:57;2.80;;;2.60;;
2191;SDS011;1102;49.718;11.902;2023-04-03T08:20:24;2.83;;;2.63;;
2191;SDS011;1102;49.718;11.902;2023-04-03T08:22:52;3.73;;;2.03;;
2191;SDS011;1102;49.718;11.902;2023-04-03T08:25:18;2.47;;;2.27;;
2191;SDS011;1102;49.718;11.902;2023-04-03T08:27:45;1.80;;;1.70;;
2191;SDS011;1102;49.718;11.902;2023-04-03T08:30:12;2.20;;;2.00;;
2191;SDS011;1102;49.718;11.902;2023-04-03T08:32:40;2.23;;;1.80;;
2191;SDS011;1102;49.718;11.902;2023-04-03T08:35:08;2.67;;;2.47;;
2191;SDS011;1102;49.718;11.902;2023-04-03T08:37:36;3.63;;;2.57;;
2191;SDS011;1102;49.718;11.902;2023-04-03T08:40:04;2.73;;;2.53;;
2191;SDS011;1102;49.718;11.902;2023-04-03T08:42:53;2.80;;;2.20;;
2191;SDS011;1102;49.718;11.902;2023-04-03T08:45:48;2.40;;;2.20;;
2191;SDS011;1102;49.718;11.902;2023-04-03T08:48:19;3.80;;;2.07;;
2191;SDS011;1102;49.718;11.902;2023-04-03T08:50:51;1.97;;;1.60;;
2191;SDS011;1102;49.718;11.902;2023-04-03T08:53:21;2.90;;;2.67;;
2191;SDS011;1102;49.718;11.902;2023-04-03T08:55:52;1.87;;;1.77;;
2191;SDS011;1102;49.718;11.902;2023-04-03T08:58:24;4.03;;;2.47;;
2191;SDS011;1102;49.718;11.902;2023-04-03T09:03:43;5.60;;;2.60;;
2191;SDS011;1102;49.718;11.902;2023-04-03T09:06:13;3.90;;;2.20;;
2191;SDS011;1102;49.718;11.902;2023-04-03T09:08:45;6.60;;;2.70;;
2191;SDS011;1102;49.718;11.902;2023-04-03T09:19:20;3.67;;;2.60;;
2191;SDS011;1102;49.718;11.902;2023-04-03T09:21:48;8.70;;;2.50;;
2191;SDS011;1102;49.718;11.902;2023-04-03T09:24:15;1.90;;;1.73;;
2191;SDS011;1102;49.718;11.902;2023-04-03T09:26:44;3.03;;;2.83;;
2191;SDS011;1102;49.718;11.902;2023-04-03T09:29:18;2.07;;;1.93;;
2191;SDS011;1102;49.718;11.902;2023-04-03T09:31:49;5.17;;;2.17;;
2191;SDS011;1102;49.718;11.902;2023-04-03T09:34:22;4.00;;;2.70;;
2191;SDS011;1102;49.718;11.902;2023-04-03T09:36:50;2.77;;;2.20;;
2191;SDS011;1102;49.718;11.902;2023-04-03T09:39:20;2.37;;;1.77;;
2191;SDS011;1102;49.718;11.902;2023-04-03T09:44:34;3.03;;;1.83;;
2191;SDS011;1102;49.718;11.902;2023-04-03T09:52:43;2.60;;;2.00;;
2191;SDS011;1102;49.718;11.902;2023-04-03T09:57:47;6.13;;;1.70;;
2191;SDS011;1102;49.718;11.902;2023-04-03T10:00:23;2.17;;;1.97;;
2191;SDS011;1102;49.718;11.902;2023-04-03T10:03:02;1.60;;;1.50;;
2191;SDS011;1102;49.718;11.902;2023-04-03T10:10:35;1.97;;;1.73;;
2191;SDS011;1102;49.718;11.902;2023-04-03T10:13:07;1.37;;;1.27;;
2191;SDS011;1102;49.718;11.902;2023-04-03T10:15:48;1.87;;;1.60;;
2191;SDS011;1102;49.718;11.902;2023-04-03T10:24:14;2.53;;;1.80;;
2191;SDS011;1102;49.718;11.902;2023-04-03T10:29:27;3.17;;;2.07;;
2191;SDS011;1102;49.718;11.902;2023-04-03T10:40:47;1.67;;;1.40;;
2191;SDS011;1102;49.718;11.902;2023-04-03T10:46:33;2.20;;;1.60;;
2191;SDS011;1102;49.718;11.902;2023-04-03T10:52:07;2.70;;;1.47;;
2191;SDS011;1102;49.718;11.902;2023-04-03T10:54:46;2.20;;;2.10;;
2191;SDS011;1102;49.718;11.902;2023-04-03T10:57:23;1.97;;;1.70;;
2191;SDS011;1102;49.718;11.902;2023-04-03T10:59:53;1.50;;;1.40;;
2191;SDS011;1102;49.718;11.902;2023-04-03T11:08:21;1.37;;;1.27;;
2191;SDS011;1102;49.718;11.902;2023-04-03T11:10:51;4.40;;;1.50;;
2191;SDS011;1102;49.718;11.902;2023-04-03T11:13:31;1.53;;;1.23;;
2191;SDS011;1102;49.718;11.902;2023-04-03T11:16:02;1.90;;;1.60;;
2191;SDS011;1102;49.718;11.902;2023-04-03T11:18:42;2.30;;;1.40;;
2191;SDS011;1102;49.718;11.902;2023-04-03T11:21:26;2.23;;;1.70;;
2191;SDS011;1102;49.718;11.902;2023-04-03T11:23:58;1.70;;;1.50;;
2191;SDS011;1102;49.718;11.902;2023-04-03T11:26:29;1.90;;;1.60;;
2191;SDS011;1102;49.718;11.902;2023-04-03T11:29:03;1.97;;;1.50;;
2191;SDS011;1102;49.718;11.902;2023-04-03T11:37:17;3.23;;;1.83;;
2191;SDS011;1102;49.718;11.902;2023-04-03T11:40:03;2.90;;;1.50;;
2191;SDS011;1102;49.718;11.902;2023-04-03T11:42:53;2.20;;;1.80;;
2191;SDS011;1102;49.718;11.902;2023-04-03T11:45:33;3.83;;;1.60;;
2191;SDS011;1102;49.718;11.902;2023-04-03T11:50:50;3.23;;;1.57;;
2191;SDS011;1102;49.718;11.902;2023-04-03T11:53:29;3.97;;;1.57;;
2191;SDS011;1102;49.718;11.902;2023-04-03T12:04:25;1.57;;;1.47;;
2191;SDS011;1102;49.718;11.902;2023-04-03T12:09:57;1.70;;;1.60;;
2191;SDS011;1102;49.718;11.902;2023-04-03T12:15:16;1.30;;;1.20;;
2191;SDS011;1102;49.718;11.902;2023-04-03T12:17:49;2.33;;;1.20;;
2191;SDS011;1102;49.718;11.902;2023-04-03T12:23:24;2.13;;;1.50;;
2191;SDS011;1102;49.718;11.902;2023-04-03T12:25:52;2.13;;;1.70;;
2191;SDS011;1102;49.718;11.902;2023-04-03T12:29:10;1.93;;;1.27;;
2191;SDS011;1102;49.718;11.902;2023-04-03T12:31:47;2.07;;;1.70;;
2191;SDS011;1102;49.718;11.902;2023-04-03T12:45:22;2.90;;;1.87;;
2191;SDS011;1102;49.718;11.902;2023-04-03T12:47:51;1.80;;;1.43;;
2191;SDS011;1102;49.718;11.902;2023-04-03T12:50:21;1.70;;;1.60;;
2191;SDS011;1102;49.718;11.902;2023-04-03T12:52:52;3.53;;;2.27;;
2191;SDS011;1102;49.718;11.902;2023-04-03T12:55:23;1.87;;;1.77;;
2191;SDS011;1102;49.718;11.902;2023-04-03T12:57:50;1.40;;;1.30;;
2191;SDS011;1102;49.718;11.902;2023-04-03T13:02:49;2.27;;;1.50;;
2191;SDS011;1102;49.718;11.902;2023-04-03T13:05:17;2.70;;;2.50;;
2191;SDS011;1102;49.718;11.902;2023-04-03T13:07:48;1.50;;;1.40;;
2191;SDS011;1102;49.718;11.902;2023-04-03T13:10:18;2.00;;;1.90;;
2191;SDS011;1102;49.718;11.902;2023-04-03T13:12:50;1.60;;;1.50;;
2191;SDS011;1102;49.718;11.902;2023-04-03T13:15:28;2.60;;;1.23;;
2191;SDS011;1102;49.718;11.902;2023-04-03T13:17:57;3.90;;;1.60;;
2191;SDS011;1102;49.718;11.902;2023-04-03T13:20:25;1.80;;;1.70;;
2191;SDS011;1102;49.718;11.902;2023-04-03T13:23:07;2.60;;;1.63;;
2191;SDS011;1102;49.718;11.902;2023-04-03T13:25:41;2.50;;;2.00;;
2191;SDS011;1102;49.718;11.902;2023-04-03T13:28:12;2.00;;;1.80;;
2191;SDS011;1102;49.718;11.902;2023-04-03T13:30:54;2.23;;;1.90;;
2191;SDS011;1102;49.718;11.902;2023-04-03T13:33:31;3.00;;;1.73;;
2191;SDS011;1102;49.718;11.902;2023-04-03T13:36:05;1.90;;;1.80;;
2191;SDS011;1102;49.718;11.902;2023-04-03T13:38:35;1.70;;;1.60;;
2191;SDS011;1102;49.718;11.902;2023-04-03T13:41:04;3.20;;;1.50;;
2191;SDS011;1102;49.718;11.902;2023-04-03T13:43:49;1.80;;;1.70;;
2191;SDS011;1102;49.718;11.902;2023-04-03T13:46:26;1.63;;;1.40;;
2191;SDS011;1102;49.718;11.902;2023-04-03T13:48:55;2.30;;;2.00;;
2191;SDS011;1102;49.718;11.902;2023-04-03T13:51:24;3.30;;;1.93;;
2191;SDS011;1102;49.718;11.902;2023-04-03T13:53:54;1.80;;;1.70;;
2191;SDS011;1102;49.718;11.902;2023-04-03T13:56:30;2.23;;;2.03;;
2191;SDS011;1102;49.718;11.902;2023-04-03T13:58:59;3.83;;;2.60;;
2191;SDS011;1102;49.718;11.902;2023-04-03T14:04:11;4.63;;;1.80;;
2191;SDS011;1102;49.718;11.902;2023-04-03T14:06:48;2.90;;;2.50;;
2191;SDS011;1102;49.718;11.902;2023-04-03T14:09:15;2.33;;;1.90;;
2191;SDS011;1102;49.718;11.902;2023-04-03T14:11:45;3.27;;;2.83;;
2191;SDS011;1102;49.718;11.902;2023-04-03T14:14:15;2.13;;;1.83;;
2191;SDS011;1102;49.718;11.902;2023-04-03T14:16:45;4.90;;;1.93;;
2191;SDS011;1102;49.718;11.902;2023-04-03T14:19:19;2.23;;;1.90;;
2191;SDS011;1102;49.718;11.902;2023-04-03T14:21:48;2.87;;;2.13;;
2191;SDS011;1102;49.718;11.902;2023-04-03T14:24:17;2.40;;;2.23;;
2191;SDS011;1102;49.718;11.902;2023-04-03T14:26:44;2.67;;;1.53;;
2191;SDS011;1102;49.718;11.902;2023-04-03T14:29:11;2.60;;;1.40;;
2191;SDS011;1102;49.718;11.902;2023-04-03T14:31:39;2.37;;;2.17;;
2191;SDS011;1102;49.718;11.902;2023-04-03T14:34:09;2.37;;;2.10;;
2191;SDS011;1102;49.718;11.902;2023-04-03T14:36:37;1.83;;;1.63;;
2191;SDS011;1102;49.718;11.902;2023-04-03T14:39:04;2.53;;;2.33;;
2191;SDS011;1102;49.718;11.902;2023-04-03T14:41:33;2.40;;;1.73;;
2191;SDS011;1102;49.718;11.902;2023-04-03T14:44:00;5.50;;;2.33;;
2191;SDS011;1102;49.718;11.902;2023-04-03T14:49:23;4.43;;;1.73;;
2191;SDS011;1102;49.718;11.902;2023-04-03T14:51:55;2.00;;;1.80;;
2191;SDS011;1102;49.718;11.902;2023-04-03T14:54:22;2.30;;;2.10;;
2191;SDS011;1102;49.718;11.902;2023-04-03T14:56:55;2.47;;;1.57;;
2191;SDS011;1102;49.718;11.902;2023-04-03T14:59:23;4.10;;;2.70;;
2191;SDS011;1102;49.718;11.902;2023-04-03T15:01:50;4.80;;;2.00;;
2191;SDS011;1102;49.718;11.902;2023-04-03T15:04:18;3.43;;;2.43;;
2191;SDS011;1102;49.718;11.902;2023-04-03T15:06:46;2.47;;;2.10;;
2191;SDS011;1102;49.718;11.902;2023-04-03T15:09:21;2.43;;;1.93;;
2191;SDS011;1102;49.718;11.902;2023-04-03T15:11:53;2.00;;;1.90;;
2191;SDS011;1102;49.718;11.902;2023-04-03T15:14:21;3.77;;;2.17;;
2191;SDS011;1102;49.718;11.902;2023-04-03T15:17:06;1.40;;;1.27;;
2191;SDS011;1102;49.718;11.902;2023-04-03T15:19:37;3.57;;;2.80;;
2191;SDS011;1102;49.718;11.902;2023-04-03T15:22:05;3.23;;;2.47;;
2191;SDS011;1102;49.718;11.902;2023-04-03T15:24:32;5.47;;;3.43;;
2191;SDS011;1102;49.718;11.902;2023-04-03T15:26:59;2.13;;;1.93;;
2191;SDS011;1102;49.718;11.902;2023-04-03T15:29:27;2.73;;;2.53;;
2191;SDS011;1102;49.718;11.902;2023-04-03T15:31:53;2.80;;;2.40;;
2191;SDS011;1102;49.718;11.902;2023-04-03T15:34:20;2.40;;;2.30;;
2191;SDS011;1102;49.718;11.902;2023-04-03T15:36:49;2.30;;;2.10;;
2191;SDS011;1102;49.718;11.902;2023-04-03T15:39:16;3.03;;;2.27;;
2191;SDS011;1102;49.718;11.902;2023-04-03T15:41:43;3.63;;;2.70;;
2191;SDS011;1102;49.718;11.902;2023-04-03T15:44:11;5.47;;;1.90;;
2191;SDS011;1102;49.718;11.902;2023-04-03T15:46:39;2.87;;;2.20;;
2191;SDS011;1102;49.718;11.902;2023-04-03T15:49:06;2.33;;;2.13;;
2191;SDS011;1102;49.718;11.902;2023-04-03T15:51:33;5.47;;;3.00;;
2191;SDS011;1102;49.718;11.902;2023-04-03T15:53:59;6.00;;;2.80;;
2191;SDS011;1102;49.718;11.902;2023-04-03T15:56:26;2.30;;;2.10;;
2191;SDS011;1102;49.718;11.902;2023-04-03T15:58:53;2.23;;;1.90;;
2191;SDS011;1102;49.718;11.902;2023-04-03T16:01:19;2.87;;;2.67;;
2191;SDS011;1102;49.718;11.902;2023-04-03T16:03:46;4.30;;;2.37;;
2191;SDS011;1102;49.718;11.902;2023-04-03T16:06:14;3.10;;;2.60;;
2191;SDS011;1102;49.718;11.902;2023-04-03T16:08:41;2.43;;;2.23;;
2191;SDS011;1102;49.718;11.902;2023-04-03T16:11:08;2.17;;;2.00;;
2191;SDS011;1102;49.718;11.902;2023-04-03T16:13:35;2.40;;;2.20;;
2191;SDS011;1102;49.718;11.902;2023-04-03T16:16:02;4.30;;;2.10;;
2191;SDS011;1102;49.718;11.902;2023-04-03T16:18:30;2.40;;;2.20;;
2191;SDS011;1102;49.718;11.902;2023-04-03T16:20:57;2.40;;;2.20;;
2191;SDS011;1102;49.718;11.902;2023-04-03T16:23:25;3.27;;;2.97;;
2191;SDS011;1102;49.718;11.902;2023-04-03T16:25:51;4.80;;;2.97;;
2191;SDS011;1102;49.718;11.902;2023-04-03T16:28:18;4.87;;;3.07;;
2191;SDS011;1102;49.718;11.902;2023-04-03T16:30:45;2.60;;;2.40;;
2191;SDS011;1102;49.718;11.902;2023-04-03T16:33:13;2.60;;;2.40;;
2191;SDS011;1102;49.718;11.902;2023-04-03T16:35:40;3.23;;;2.07;;
2191;SDS011;1102;49.718;11.902;2023-04-03T16:38:08;2.90;;;2.60;;
2191;SDS011;1102;49.718;11.902;2023-04-03T16:40:35;2.33;;;2.10;;
2191;SDS011;1102;49.718;11.902;2023-04-03T16:43:01;3.20;;;2.07;;
2191;SDS011;1102;49.718;11.902;2023-04-03T16:45:28;2.17;;;2.07;;
2191;SDS011;1102;49.718;11.902;2023-04-03T16:47:55;2.60;;;2.17;;
2191;SDS011;1102;49.718;11.902;2023-04-03T16:50:22;2.53;;;2.30;;
2191;SDS011;1102;49.718;11.902;2023-04-03T16:52:49;2.90;;;2.70;;
2191;SDS011;1102;49.718;11.902;2023-04-03T16:55:15;2.27;;;2.10;;
2191;SDS011;1102;49.718;11.902;2023-04-03T16:57:42;3.70;;;2.50;;
2191;SDS011;1102;49.718;11.902;2023-04-03T17:00:09;3.67;;;3.30;;
2191;SDS011;1102;49.718;11.902;2023-04-03T17:02:36;2.43;;;2.20;;
2191;SDS011;1102;49.718;11.902;2023-04-03T17:05:03;2.40;;;2.20;;
2191;SDS011;1102;49.718;11.902;2023-04-03T17:07:30;2.57;;;2.37;;